Terminal Aerodrome Forecast
Issued by NWS

Home | Current Version | Previous Version | Text Only | Print | Product List | Glossary On
Versions: 1 2 3 4 5 6 7 8 9 10 11 12 13 14 15 16 17 18 19 20 21 22 23 24 25 26 27 28 29 30 31 32 33 34 35 36
752
FTUS43 KSGF 190019 AAA
TAFJLN
TAF AMD
KJLN 190019Z 1900/1924 22005KT P6SM OVC025
     FM190100 14006KT 6SM BR BKN025
     FM190300 14005KT 5SM BR OVC015
     FM190700 VRB03KT 3SM BR OVC003
     FM191100 VRB03KT 1SM BR OVC002
     FM191600 18006KT 4SM BR OVC007=

USA.gov is the U.S. government's official web portal to all federal, state and local government web resources and services.